MMGM/GYM METAR and TAF weather

Enter ICAO airport designator
Station Type Date Time Source
MMGM METAR 2021/09/23 17:52 UTC NOAA

MMGM 231752Z 10006KT 10SM SCT100 34/26 A2982 RMK 8/030


Station Type Date Time Source
MMGM Decoded METAR 2021/09/23 17:52 UTC NOAA

Guaymas International Airport, Mexico (MMGM) 27-58N 110-56W
Sep 23, 2021 - 01:52 PM EDT / 2021.09.23 1752 UTC
Wind: from the E (100 degrees) at 7 MPH (6 KT):0
Visibility: 10 mile(s):0
Sky conditions: partly cloudy
Temperature: 93 F (34 C)
Heat index: 109.6 F (43.1 C):1
Dew Point: 78 F (26 C)
Relative Humidity: 63%
Pressure (altimeter): 29.82 in. Hg (1009 hPa)
ob: MMGM 231752Z 10006KT 10SM SCT100 34/26 A2982 RMK 8/030
cycle: 18

Station Type Date Time Source
MMGM TAF 2021/09/23 18:27 UTC NOAA

TAF MMGM 231716Z 2318/2418 22010KT P6SM BKN100
TEMPO 2318/2322 5SM RA
FM240000 27005KT P6SM SCT100 BKN200
TEMPO 2411/2415 BKN15

Example: see airport list